Portada
METAR-TAF:

METAR-TAF

Aeropuertos :

Aeropuerto de Roberval

Roberval, Quebec, Canadá

latitud: 48-31N, longitud: 072-16W, altitud: 179 m

Observación

El informe se hizo hace 57 minutos, a las 00:00 UTC
Viento 5 kt del este-sureste
Temperatura -6°C
Humedad 93%
Presión 1003 hPa
Visibilidad: 1.6 km
poca nieve

METAR: CYRJ 170000Z 12005KT 1SM -SN VV011 M06/M07 A2961 RMK SN8 SLP041

Hora: 19:57 (00:57 UTC)

Pronóstico

El informe se hizo hace 5 horas y 19 minutos, a las 19:38 UTC
Pronóstico válido del 16 a las 20 UTC al 17 a las 03 UTC
Viento 10 kt del este-sureste
Visibilidad: 9.7 km
Cielo cubierto a una altura de 3000 ft
poca nieve
Temporalmente
del 16 a las 20 UTC al 17 a las 03 UTC
Visibilidad: 1.6 km
poca nieve

TAF: CYRJ 161938Z 1620/1703 11010KT 6SM -SN OVC030 TEMPO 1620/1703 1SM -SN RMK NXT FCST WILL BE ISSUED AT 171245Z

Observaciones y pronósticos meteorológicos de más de 4000 aeropuertos (mensajes METAR y TAF).

Los puntos amarillos y rojos representan las estaciones disponibles.

Ponga el ratón en el punto deseado para ver el nombre de la estación.

Haga clic para ver las observaciones y los pronósticos meteorológicos.

Para cambiar el mapa : haga clic en los botones verdes con una cruz de color negro para hacer un zoom, en el botón verde con un guión para alejar o en las flechas verdes para mapas adyacentes.


METAR-TAF: